Time;durP1;ratioP1;P1;durP2;ratioP2;P2;SDS_P1;SDS_P2;PMS_P1;PMS_P2;Temp;Humidity;BMP_temperature;BMP_pressure;BME280_temperature;BME280_humidity;BME280_pressure;Samples;Min_cycle;Max_cycle;Signal;HPM_P1;HPM_P2
2023/10/17 00:05:41;;;;;;;9.90;1.77;;;14.50;78.70;;;;;;6185183;23;20483;-68
2023/10/17 00:08:13;;;;;;;13.60;1.88;;;14.50;79.50;;;;;;6134993;23;20017;-68
2023/10/17 00:10:46;;;;;;;6.72;1.85;;;14.50;79.70;;;;;;6184953;23;20084;-68
2023/10/17 00:13:38;;;;;;;8.52;1.60;;;14.50;79.80;;;;;;6184916;23;20020;-68
2023/10/17 00:16:09;;;;;;;8.23;1.80;;;14.60;79.80;;;;;;6164321;23;20001;-68
2023/10/17 00:18:36;;;;;;;11.70;1.60;;;14.50;79.90;;;;;;6159111;23;20346;-68
2023/10/17 00:24:02;;;;;;;7.00;2.10;;;14.40;83.30;;;;;;6171683;23;20013;-68
2023/10/17 00:26:31;;;;;;;9.80;1.90;;;14.30;85.30;;;;;;6185245;23;20124;-68
2023/10/17 00:28:58;;;;;;;6.30;1.77;;;14.10;85.50;;;;;;6185034;23;20004;-67
2023/10/17 00:31:25;;;;;;;6.63;1.60;;;13.90;85.80;;;;;;6158611;23;20009;-68
2023/10/17 00:33:57;;;;;;;7.60;2.03;;;13.90;87.00;;;;;;6185114;23;20001;-68
2023/10/17 00:36:26;;;;;;;10.93;2.28;;;13.90;87.40;;;;;;6159676;23;20079;-68
2023/10/17 00:38:56;;;;;;;8.55;1.73;;;14.00;87.70;;;;;;6158663;23;20001;-68
2023/10/17 00:41:34;;;;;;;14.10;3.25;;;14.10;87.50;;;;;;6159179;23;20071;-67
2023/10/17 00:44:01;;;;;;;8.07;1.50;;;14.20;87.10;;;;;;6184885;23;20056;-68
2023/10/17 00:46:28;;;;;;;10.15;1.73;;;14.40;87.30;;;;;;6184673;23;20009;-68
2023/10/17 00:48:56;;;;;;;6.80;1.80;;;14.50;85.20;;;;;;6185228;23;20008;-68
2023/10/17 00:51:24;;;;;;;9.85;1.83;;;14.70;84.90;;;;;;6158478;23;20028;-68
2023/10/17 00:53:51;;;;;;;6.22;1.70;;;14.70;82.30;;;;;;6159129;23;20008;-68
2023/10/17 00:56:20;;;;;;;10.07;1.90;;;14.70;81.80;;;;;;6134210;23;20055;-68
2023/10/17 00:58:47;;;;;;;8.77;2.13;;;14.80;82.30;;;;;;6185146;23;20063;-68
2023/10/17 01:01:20;;;;;;;8.55;1.80;;;15.00;82.30;;;;;;6184771;23;20002;-68
2023/10/17 01:03:54;;;;;;;7.53;1.60;;;15.10;82.50;;;;;;6184708;23;20016;-68
2023/10/17 01:08:49;;;;;;;9.85;1.90;;;15.30;82.70;;;;;;6184805;23;20017;-68
2023/10/17 01:11:27;;;;;;;9.20;1.80;;;15.40;82.10;;;;;;6184617;23;20009;-68
2023/10/17 01:13:56;;;;;;;8.68;2.00;;;15.60;82.50;;;;;;6160989;23;20427;-68
2023/10/17 01:16:27;;;;;;;14.40;2.00;;;15.70;80.40;;;;;;6184120;23;20004;-68
2023/10/17 01:18:57;;;;;;;;;;;15.60;81.70;;;;;;6184939;23;20036;-68
2023/10/17 01:21:26;;;;;;;8.85;1.88;;;15.60;81.60;;;;;;6184971;23;20308;-68
2023/10/17 01:23:55;;;;;;;12.30;2.33;;;15.50;82.40;;;;;;6184716;23;20073;-68
2023/10/17 01:26:23;;;;;;;9.23;2.17;;;15.40;81.50;;;;;;6184598;23;20016;-68
2023/10/17 01:28:52;;;;;;;13.40;2.15;;;15.40;82.30;;;;;;6184841;23;20401;-68
2023/10/17 01:31:22;;;;;;;10.15;1.83;;;15.40;81.00;;;;;;6158203;23;20016;-68
2023/10/17 01:33:54;;;;;;;16.00;2.90;;;15.60;81.70;;;;;;6184615;23;20305;-68
2023/10/17 01:36:22;;;;;;;9.82;2.20;;;15.70;80.60;;;;;;6184329;23;20015;-68
2023/10/17 01:38:49;;;;;;;11.63;2.30;;;15.70;81.00;;;;;;6184065;23;20369;-68
2023/10/17 01:41:20;;;;;;;11.32;2.08;;;15.90;82.30;;;;;;6184688;23;20001;-69
2023/10/17 01:43:50;;;;;;;12.63;2.30;;;16.10;79.60;;;;;;6184828;23;20001;-68
2023/10/17 01:46:21;;;;;;;;;;;16.20;78.50;;;;;;6185068;23;19994;-68
2023/10/17 01:48:49;;;;;;;9.88;1.88;;;16.30;78.10;;;;;;6184598;23;19904;-68
2023/10/17 01:51:17;;;;;;;10.55;1.80;;;16.20;79.30;;;;;;6158183;23;20030;-68
2023/10/17 01:53:51;;;;;;;8.48;1.83;;;15.80;80.40;;;;;;6134012;23;20396;-68
2023/10/17 01:56:26;;;;;;;10.05;1.80;;;15.70;82.60;;;;;;6159665;23;20019;-68
2023/10/17 01:59:17;;;;;;;6.90;1.67;;;15.50;83.00;;;;;;6184816;23;20001;-68
2023/10/17 02:01:41;;;;;;;10.90;2.30;;;15.50;84.70;;;;;;6183114;23;20011;-68
2023/10/17 02:04:14;;;;;;;9.07;1.75;;;15.70;86.40;;;;;;6184962;23;20017;-68
2023/10/17 02:06:47;;;;;;;13.40;2.05;;;15.70;83.20;;;;;;6184183;23;20044;-68
2023/10/17 02:12:00;;;;;;;10.85;2.05;;;15.90;81.80;;;;;;6184369;23;20092;-68
2023/10/17 02:14:26;;;;;;;;;;;16.00;81.30;;;;;;6184959;23;20084;-68
2023/10/17 02:16:55;;;;;;;7.30;1.80;;;16.10;80.10;;;;;;6184445;23;20235;-68
2023/10/17 02:19:25;;;;;;;12.85;2.17;;;16.20;77.10;;;;;;6184133;23;20005;-68
2023/10/17 02:21:54;;;;;;;17.90;2.95;;;16.30;80.50;;;;;;6184404;23;20072;-68
2023/10/17 02:24:22;;;;;;;11.40;2.08;;;16.40;81.10;;;;;;6184823;23;20020;-69
2023/10/17 02:26:56;;;;;;;10.85;1.90;;;16.50;79.00;;;;;;6158545;23;20008;-69
2023/10/17 02:29:29;;;;;;;11.20;1.75;;;16.40;77.80;;;;;;6159732;23;20072;-68
2023/10/17 02:31:59;;;;;;;10.63;2.20;;;16.20;77.70;;;;;;6184100;23;20351;-68
2023/10/17 02:34:29;;;;;;;11.18;1.90;;;16.20;79.30;;;;;;6184495;23;20012;-69
2023/10/17 02:37:00;;;;;;;8.20;1.90;;;16.20;79.50;;;;;;6184329;23;20016;-69
2023/10/17 02:39:27;;;;;;;5.95;1.90;;;16.30;78.20;;;;;;6184590;23;20001;-69
2023/10/17 02:42:09;;;;;;;8.30;1.80;;;16.30;78.80;;;;;;6184066;23;20005;-68
2023/10/17 02:44:43;;;;;;;9.43;1.63;;;16.30;77.40;;;;;;6184596;23;20015;-69
2023/10/17 02:47:11;;;;;;;6.07;1.58;;;16.40;76.10;;;;;;6160155;23;19997;-68
2023/10/17 02:49:39;;;;;;;8.57;1.73;;;16.50;77.30;;;;;;6184250;23;20013;-69
2023/10/17 02:52:06;;;;;;;10.68;1.80;;;16.40;76.90;;;;;;6184356;23;20025;-69
2023/10/17 02:54:54;;;;;;;8.63;1.60;;;16.40;76.40;;;;;;6184230;23;19997;-69
2023/10/17 02:57:23;;;;;;;13.95;2.90;;;16.50;75.90;;;;;;6162725;23;20080;-68
2023/10/17 02:59:51;;;;;;;11.07;1.90;;;16.60;76.20;;;;;;6184335;23;20001;-68
2023/10/17 03:02:25;;;;;;;7.53;1.65;;;16.70;75.80;;;;;;6185849;23;20008;-69
2023/10/17 03:04:57;;;;;;;8.57;1.92;;;16.70;75.60;;;;;;6206555;23;20043;-69
2023/10/17 03:07:26;;;;;;;8.70;1.63;;;16.80;74.00;;;;;;6215899;23;20001;-69
2023/10/17 03:09:53;;;;;;;7.10;1.65;;;16.80;73.30;;;;;;6216011;23;20380;-69
2023/10/17 03:12:23;;;;;;;8.73;1.70;;;16.80;73.00;;;;;;6215785;23;20059;-69
2023/10/17 03:15:18;;;;;;;8.32;1.60;;;16.80;72.60;;;;;;6215598;23;20005;-69
2023/10/17 03:17:39;;;;;;;8.95;1.60;;;16.70;73.70;;;;;;6215578;23;20020;-69
2023/10/17 03:20:10;;;;;;;11.35;1.90;;;16.70;74.00;;;;;;6215711;23;19997;-69
2023/10/17 03:22:38;;;;;;;9.80;1.67;;;16.60;72.80;;;;;;6215802;23;20079;-69
2023/10/17 03:25:24;;;;;;;7.45;2.00;;;16.50;74.00;;;;;;6215399;23;20016;-69
2023/10/17 03:27:55;;;;;;;13.50;1.85;;;16.50;74.30;;;;;;6188875;23;20005;-69
2023/10/17 03:30:22;;;;;;;13.50;1.80;;;16.60;74.30;;;;;;6190058;23;20008;-69
2023/10/17 03:35:27;;;;;;;8.75;2.05;;;16.50;74.30;;;;;;6215757;23;20008;-69
2023/10/17 03:37:55;;;;;;;5.97;1.40;;;16.50;73.90;;;;;;6189878;23;20076;-69
2023/10/17 03:40:30;;;;;;;8.13;1.60;;;16.50;73.60;;;;;;6188839;23;20005;-69
2023/10/17 03:43:08;;;;;;;7.10;1.63;;;16.50;73.40;;;;;;6215461;23;20008;-69
2023/10/17 03:45:43;;;;;;;3.95;1.42;;;16.50;73.90;;;;;;6215350;23;20439;-69
2023/10/17 03:48:16;;;;;;;6.93;1.35;;;16.70;75.00;;;;;;6215451;23;20008;-68
2023/10/17 03:50:57;;;;;;;17.60;2.13;;;16.70;73.10;;;;;;6214894;23;20028;-68
2023/10/17 03:53:30;;;;;;;5.15;1.40;;;16.70;73.10;;;;;;6215506;23;20005;-69
2023/10/17 03:56:00;;;;;;;9.30;2.15;;;16.90;73.60;;;;;;6215961;23;20000;-69
2023/10/17 04:00:57;;;;;;;10.38;1.70;;;16.80;72.80;;;;;;6189311;23;20510;-68
2023/10/17 04:08:48;;;;;;;8.40;1.50;;;16.70;71.40;;;;;;6215640;23;20017;-68
2023/10/17 04:13:53;;;;;;;7.28;1.73;;;16.70;71.10;;;;;;6215847;23;20043;-68
2023/10/17 04:16:33;;;;;;;9.20;1.92;;;16.70;71.80;;;;;;6215652;23;20008;-68
2023/10/17 04:19:00;;;;;;;8.55;1.65;;;16.70;71.50;;;;;;6215168;23;20005;-68
2023/10/17 04:21:31;;;;;;;11.88;1.30;;;16.60;72.20;;;;;;6215254;23;20019;-69
2023/10/17 04:24:05;;;;;;;7.88;1.30;;;16.50;72.20;;;;;;6215218;23;20339;-68
2023/10/17 04:26:36;;;;;;;8.18;1.48;;;16.50;71.20;;;;;;6214899;23;20076;-69
2023/10/17 04:29:18;;;;;;;;;;;16.50;71.30;;;;;;6215521;23;20312;-69
2023/10/17 04:31:47;;;;;;;12.60;1.70;;;16.50;70.50;;;;;;6215195;23;19908;-68
2023/10/17 04:34:26;;;;;;;17.88;1.73;;;16.50;71.00;;;;;;6189701;23;19997;-68
2023/10/17 04:36:56;;;;;;;6.30;1.52;;;16.50;70.70;;;;;;6215349;23;20012;-68
2023/10/17 04:44:25;;;;;;;7.47;1.40;;;16.90;70.10;;;;;;6215336;23;20005;-68
2023/10/17 04:47:16;;;;;;;8.65;1.60;;;16.90;70.90;;;;;;6214905;23;20012;-69
2023/10/17 04:49:39;;;;;;;8.48;1.75;;;16.90;70.60;;;;;;6214680;23;20028;-68
2023/10/17 04:52:08;;;;;;;9.95;1.63;;;16.80;71.50;;;;;;6214493;23;20013;-69
2023/10/17 04:57:05;;;;;;;6.65;1.92;;;16.80;70.80;;;;;;6189344;23;20012;-69
2023/10/17 04:59:51;;;;;;;6.72;1.40;;;16.70;71.00;;;;;;6214363;23;20019;-69
2023/10/17 05:07:30;;;;;;;4.70;1.40;;;16.70;71.30;;;;;;6215681;23;20436;-68
